< < Back
Terminal Aerodrome Forecast


Current Version              Previous Versions:   1  2  3  4  5  6  7  8  9  

Terminal Aerodrome Forecast

802
FTUS42 KCAE 310800 AAA
TAFAGS
TAF AMD
KAGS 310858Z 3109/0106 VRB03KT P6SM BKN080
      TEMPO 3110/3113 4SM BR
     FM311400 08006KT P6SM BKN060
     FM311700 09007KT P6SM VCSH SCT030 BKN050
     FM010500 05005KT P6SM SCT025 BKN035=



Latest METAR

310
SAUS70 KWBC 310900 RRC
MTRAGS
METAR KAGS 310853Z AUTO 36004KT 10SM SCT028 OVC085 23/21 A3002 RMK AO2
SLP162 T02280206 55001


USA.gov is the U.S. government's official web portal to all federal, state and local government web resources and services.